createdAt,value
2017-05-19T00:00:24.408Z,69.1
2017-05-19T00:01:27.119Z,69.2
2017-05-19T00:02:30.470Z,69.1
2017-05-19T00:03:33.617Z,69.3
2017-05-19T00:04:35.965Z,70
2017-05-19T00:05:38.812Z,69.9
2017-05-19T00:06:41.655Z,69.6
2017-05-19T00:07:44.507Z,69.7
2017-05-19T00:08:48.111Z,69.7
2017-05-19T00:09:50.453Z,69.7
2017-05-19T00:10:53.843Z,69.7
2017-05-19T00:11:56.188Z,69.9
2017-05-19T00:12:59.039Z,69.7
2017-05-19T00:14:02.138Z,69.9
2017-05-19T00:15:05.408Z,69.9
2017-05-19T00:16:07.615Z,70
2017-05-19T00:17:10.974Z,69.9
2017-05-19T00:18:13.821Z,69.8
2017-05-19T00:19:16.787Z,69.9
2017-05-19T00:20:19.631Z,69.9
2017-05-19T00:21:22.343Z,69.9
2017-05-19T00:22:25.191Z,70
2017-05-19T00:23:27.902Z,70
2017-05-19T00:24:31.420Z,70.1
2017-05-19T00:25:33.627Z,70.4
2017-05-19T00:26:36.976Z,70.2
2017-05-19T00:27:39.834Z,70.4
2017-05-19T00:28:42.545Z,70.2
2017-05-19T00:29:45.562Z,70.3
2017-05-19T00:30:48.276Z,70.4
2017-05-19T00:31:51.125Z,70.4
2017-05-19T00:32:53.974Z,70.7
2017-05-19T00:33:56.827Z,70.6
2017-05-19T00:34:59.981Z,70.9
2017-05-19T00:36:02.830Z,70.8
2017-05-19T00:37:05.612Z,70.8
2017-05-19T00:38:08.187Z,71.2
2017-05-19T00:39:11.539Z,71.1
2017-05-19T00:41:17.606Z,71
2017-05-19T00:42:19.682Z,71.3
2017-05-19T00:43:23.092Z,71.1
2017-05-19T00:44:25.937Z,71.6
2017-05-19T00:45:28.785Z,71.6
2017-05-19T00:46:31.752Z,71.7
2017-05-19T00:47:34.597Z,71.4
2017-05-19T00:49:40.357Z,71.6
2017-05-19T00:50:43.200Z,71.7
2017-05-19T00:51:46.162Z,72
2017-05-19T00:52:48.911Z,72.1
2017-05-19T00:53:51.760Z,72.3
2017-05-19T00:54:54.607Z,72.3
2017-05-19T00:55:57.464Z,72.4
2017-05-19T00:57:00.614Z,72.4
2017-05-19T00:58:03.323Z,72.4
2017-05-19T00:59:06.036Z,72.5
2017-05-19T01:00:09.443Z,72.3
2017-05-19T01:01:12.197Z,72.4
2017-05-19T01:02:14.658Z,72.6
2017-05-19T01:03:17.502Z,72.7
2017-05-19T01:04:20.722Z,72.6
2017-05-19T01:05:23.572Z,72.7
2017-05-19T01:06:26.415Z,72.5
2017-05-19T01:07:29.518Z,72.4
2017-05-19T01:08:32.233Z,72.9
2017-05-19T01:10:37.996Z,72.5
2017-05-19T01:11:40.841Z,72.8
2017-05-19T01:12:43.941Z,72.8
2017-05-19T01:13:46.294Z,72.7
2017-05-19T01:14:49.138Z,72.7
2017-05-19T01:15:52.027Z,72.9
2017-05-19T01:16:54.871Z,72.9
2017-05-19T01:17:57.969Z,72.7
2017-05-19T01:20:03.594Z,73.1
2017-05-19T01:21:07.005Z,72.9
2017-05-19T01:22:09.080Z,73.2
2017-05-19T01:23:12.552Z,73.6
2017-05-19T01:24:15.406Z,73.5
2017-05-19T01:25:18.117Z,73.4
2017-05-19T01:26:20.756Z,73.6
2017-05-19T01:27:23.971Z,73.7
2017-05-19T01:28:26.934Z,73.9
2017-05-19T01:29:29.780Z,73.7
2017-05-19T01:30:32.491Z,73.9
2017-05-19T01:31:35.336Z,73.8
2017-05-19T01:32:38.184Z,73.9
2017-05-19T01:33:41.280Z,73.8
2017-05-19T01:34:44.128Z,73.8
2017-05-19T01:35:46.837Z,73.7
2017-05-19T01:36:49.681Z,73.8
2017-05-19T01:37:52.525Z,73.8
2017-05-19T01:39:58.533Z,73.8
2017-05-19T01:41:01.381Z,73.9
2017-05-19T01:43:07.142Z,73.7
2017-05-19T01:44:09.858Z,73.5
2017-05-19T01:45:13.003Z,73.7
2017-05-19T01:46:15.618Z,73.7
2017-05-19T01:47:18.465Z,73.7
2017-05-19T01:48:21.308Z,73.6
2017-05-19T01:49:24.018Z,73.6
2017-05-19T01:50:27.489Z,73.7
2017-05-19T01:51:30.061Z,73.6
2017-05-19T01:52:32.903Z,73.8
2017-05-19T01:53:36.317Z,73.9
2017-05-19T01:54:38.662Z,73.9
2017-05-19T01:55:41.757Z,74.1
2017-05-19T01:56:44.099Z,74.2
2017-05-19T01:57:47.446Z,74
2017-05-19T01:58:50.291Z,74.2
2017-05-19T01:59:53.140Z,74
2017-05-19T02:00:56.288Z,73.9
2017-05-19T02:01:58.630Z,74.2
2017-05-19T02:03:01.530Z,74.3
2017-05-19T02:05:07.284Z,74.1
2017-05-19T02:06:10.379Z,74.2
2017-05-19T02:07:13.088Z,74.1
2017-05-19T02:08:15.933Z,74.2
2017-05-19T02:09:18.777Z,74.1
2017-05-19T02:10:21.619Z,74.2
2017-05-19T02:11:24.589Z,74
2017-05-19T02:12:27.435Z,74.1
2017-05-19T02:13:30.343Z,74.5
2017-05-19T02:14:33.190Z,74.6
2017-05-19T02:15:36.036Z,74.5
2017-05-19T02:16:39.134Z,74.5
2017-05-19T02:17:41.981Z,74.5
2017-05-19T02:18:44.829Z,74.4
2017-05-19T02:19:47.680Z,74.5
2017-05-19T02:20:50.531Z,74.4
2017-05-19T02:21:53.623Z,74.4
2017-05-19T02:22:55.973Z,74.5
2017-05-19T02:23:58.823Z,74.7
2017-05-19T02:25:01.720Z,74.7
2017-05-19T02:26:04.566Z,74.7
2017-05-19T02:27:07.574Z,74.7
2017-05-19T02:28:10.152Z,74.7
2017-05-19T02:29:13.366Z,74.9
2017-05-19T02:30:16.078Z,74.9
2017-05-19T02:31:19.290Z,75
2017-05-19T02:32:22.391Z,74.9
2017-05-19T02:33:25.296Z,74.9
2017-05-19T02:34:27.511Z,75
2017-05-19T02:35:30.356Z,74.9
2017-05-19T02:36:33.207Z,74.9
2017-05-19T02:37:36.860Z,74.8
2017-05-19T02:38:39.066Z,75
2017-05-19T02:39:41.913Z,74.9
2017-05-19T02:40:44.764Z,75
2017-05-19T02:41:47.610Z,75.4
2017-05-19T02:42:50.714Z,75.8
2017-05-19T02:43:53.562Z,76
2017-05-19T02:44:56.277Z,75.8
2017-05-19T02:45:59.181Z,76
2017-05-19T02:47:02.027Z,75.8
2017-05-19T02:48:05.126Z,76.2
2017-05-19T02:49:07.836Z,76.1
2017-05-19T02:50:10.613Z,76.1
2017-05-19T02:51:13.189Z,76.2
2017-05-19T02:52:16.268Z,76
2017-05-19T02:53:19.365Z,76.3
2017-05-19T02:54:22.079Z,76.3
2017-05-19T02:55:24.928Z,76.3
2017-05-19T02:56:28.053Z,76.2
2017-05-19T02:57:30.764Z,76
2017-05-19T02:58:33.723Z,76.1
2017-05-19T02:59:36.568Z,76.1
2017-05-19T03:00:39.417Z,76.7
2017-05-19T03:01:42.322Z,77.2
2017-05-19T03:02:45.169Z,76.6
2017-05-19T03:03:48.321Z,76.7
2017-05-19T03:04:50.529Z,76.5
2017-05-19T03:05:53.372Z,76.4
2017-05-19T03:07:59.203Z,76.2
2017-05-19T03:09:02.913Z,76.5
2017-05-19T03:10:05.259Z,77.1
2017-05-19T03:12:10.384Z,78.1
2017-05-19T03:13:13.603Z,78.2
2017-05-19T03:14:16.668Z,78.4
2017-05-19T03:15:19.381Z,78.5
2017-05-19T03:16:22.231Z,78.3
2017-05-19T03:17:25.077Z,78.6
2017-05-19T03:18:27.657Z,78.7
2017-05-19T03:19:30.753Z,78.7
2017-05-19T03:20:33.465Z,78.3
2017-05-19T03:21:36.315Z,78.3
2017-05-19T03:22:39.166Z,77.9
2017-05-19T03:23:42.017Z,77.7
2017-05-19T03:24:45.117Z,77.6
2017-05-19T03:25:47.962Z,77.7
2017-05-19T03:26:50.806Z,77.6
2017-05-19T03:27:53.655Z,77.2
2017-05-19T03:28:56.501Z,77.2
2017-05-19T03:29:59.597Z,77.2
2017-05-19T03:31:01.938Z,77.1
2017-05-19T03:32:05.353Z,76.8
2017-05-19T03:33:07.942Z,76.8
2017-05-19T03:34:10.521Z,76.8
2017-05-19T03:35:13.485Z,76.8
2017-05-19T03:37:19.347Z,76.5
2017-05-19T03:38:22.191Z,76.6
2017-05-19T03:39:25.037Z,76.4
2017-05-19T03:40:28.005Z,76.4
2017-05-19T03:41:30.852Z,76.4
2017-05-19T03:42:33.697Z,76.7
2017-05-19T03:43:36.547Z,76.8
2017-05-19T03:44:39.395Z,76.8
2017-05-19T03:45:42.493Z,76.8
2017-05-19T03:46:44.842Z,76.9
2017-05-19T03:47:47.684Z,77
2017-05-19T03:48:50.528Z,76.8
2017-05-19T03:49:53.373Z,76.8
2017-05-19T03:50:56.522Z,77
2017-05-19T03:51:59.366Z,76.9
2017-05-19T03:53:02.215Z,76.8
2017-05-19T03:54:05.063Z,76.7
2017-05-19T03:55:07.907Z,76.7
2017-05-19T03:56:10.596Z,76.7
2017-05-19T03:57:13.441Z,76.4
2017-05-19T03:58:16.284Z,76.1
2017-05-19T03:59:19.126Z,76.1
2017-05-19T04:00:21.971Z,76.1
2017-05-19T04:01:25.067Z,75.9
2017-05-19T04:02:27.779Z,75.7
2017-05-19T04:03:30.620Z,75.4
2017-05-19T04:04:33.332Z,75.1
2017-05-19T04:05:36.177Z,74.7
2017-05-19T04:06:39.777Z,74.4
2017-05-19T04:07:42.119Z,73.9
2017-05-19T04:08:44.971Z,73.6
2017-05-19T04:09:47.815Z,73.2
2017-05-19T04:10:51.220Z,72.8
2017-05-19T04:11:53.861Z,72.6
2017-05-19T04:12:56.711Z,72.2
2017-05-19T04:13:59.559Z,72.2
2017-05-19T04:15:02.418Z,72
2017-05-19T04:16:05.133Z,71.9
2017-05-19T04:17:08.097Z,71.8
2017-05-19T04:19:13.586Z,71.5
2017-05-19T04:20:16.806Z,71.3
2017-05-19T04:21:19.650Z,71.4
2017-05-19T04:22:22.802Z,71.4
2017-05-19T04:23:25.148Z,71.3
2017-05-19T04:24:27.865Z,71
2017-05-19T04:25:31.219Z,70.6
2017-05-19T04:26:34.062Z,70.3
2017-05-19T04:27:37.161Z,70.1
2017-05-19T04:28:39.508Z,69.8
2017-05-19T04:29:42.359Z,69.6
2017-05-19T04:30:45.205Z,69.2
2017-05-19T04:31:48.343Z,69.1
2017-05-19T04:32:51.674Z,68.9
2017-05-19T04:33:54.017Z,68.5
2017-05-19T04:34:56.867Z,68.2
2017-05-19T04:35:59.713Z,67.7
2017-05-19T04:37:02.562Z,67.4
2017-05-19T04:38:05.591Z,67.2
2017-05-19T04:39:08.500Z,66.8
2017-05-19T04:40:11.080Z,66.5
2017-05-19T04:41:14.348Z,66
2017-05-19T04:42:17.063Z,65.6
2017-05-19T04:43:20.211Z,65.3
2017-05-19T04:44:23.057Z,64.9
2017-05-19T04:45:25.908Z,64.9
2017-05-19T04:46:28.753Z,64.8
2017-05-19T04:47:31.602Z,64.8
2017-05-19T04:48:35.126Z,64.7
2017-05-19T04:49:37.877Z,64.7
2017-05-19T04:50:40.219Z,64.5
2017-05-19T04:51:43.568Z,64.2
2017-05-19T04:53:49.573Z,64.1
2017-05-19T04:54:51.979Z,64.1
2017-05-19T04:55:54.823Z,64.2
2017-05-19T04:56:57.738Z,64.1
2017-05-19T04:58:01.084Z,63.8
2017-05-19T04:59:04.190Z,63.4
2017-05-19T05:00:06.534Z,63
2017-05-19T05:03:15.576Z,62.6
2017-05-19T05:04:18.727Z,62.5
2017-05-19T05:05:21.441Z,62.3
2017-05-19T05:06:24.148Z,62.2
2017-05-19T05:07:27.361Z,61.8
2017-05-19T05:08:30.276Z,61.5
2017-05-19T05:09:33.243Z,61.2
2017-05-19T05:10:36.090Z,60.9
2017-05-19T05:11:38.931Z,60.6
2017-05-19T05:12:41.777Z,60.5
2017-05-19T05:13:44.628Z,60.4
2017-05-19T05:14:47.836Z,60.5
2017-05-19T05:15:50.682Z,60
2017-05-19T05:16:53.528Z,60.5
2017-05-19T05:17:56.243Z,60.4
2017-05-19T05:18:59.590Z,60.5
2017-05-19T05:20:02.686Z,60.4
2017-05-19T05:21:05.538Z,60.9
2017-05-19T05:22:08.396Z,61.2
2017-05-19T05:23:11.480Z,62
2017-05-19T05:24:14.329Z,62.9
2017-05-19T05:25:17.297Z,62.8
2017-05-19T05:26:20.144Z,62.6
2017-05-19T05:27:23.004Z,63.1
2017-05-19T05:28:25.714Z,63.2
2017-05-19T05:29:28.929Z,62.8
2017-05-19T05:30:32.035Z,62.8
2017-05-19T05:31:34.877Z,63.4
2017-05-19T05:32:37.722Z,63.7
2017-05-19T05:33:40.565Z,63.4
2017-05-19T05:34:43.419Z,63.5
2017-05-19T05:35:47.026Z,62.7
2017-05-19T05:36:49.369Z,61.8
2017-05-19T05:37:52.590Z,62.2
2017-05-19T05:38:55.301Z,62.1
2017-05-19T05:39:58.154Z,61.5
2017-05-19T05:41:01.757Z,61.8
2017-05-19T05:42:04.472Z,61.5
2017-05-19T05:43:07.319Z,60.5
2017-05-19T05:44:10.033Z,60.4
2017-05-19T05:45:13.255Z,60.5
2017-05-19T05:46:16.217Z,60.7
2017-05-19T05:47:18.927Z,60
2017-05-19T05:48:21.770Z,60
2017-05-19T05:49:24.855Z,60.5
2017-05-19T05:50:27.705Z,60
2017-05-19T05:51:31.223Z,60.1
2017-05-19T05:52:34.074Z,60.2
2017-05-19T05:53:36.924Z,60
2017-05-19T05:54:39.772Z,60.4
2017-05-19T05:55:42.623Z,60.6
2017-05-19T05:56:45.634Z,60.5
2017-05-19T05:57:48.486Z,59.9
2017-05-19T05:58:51.334Z,59.7
2017-05-19T05:59:54.683Z,59.8
2017-05-19T06:00:58.110Z,59.1
2017-05-19T06:02:00.927Z,58.8
2017-05-19T06:03:03.324Z,58.9
2017-05-19T06:04:06.736Z,58.8
2017-05-19T06:05:09.591Z,58.5
2017-05-19T06:06:12.438Z,58.9
2017-05-19T06:07:15.453Z,58.6
2017-05-19T06:08:18.298Z,58.3
2017-05-19T06:09:21.010Z,58
2017-05-19T06:10:24.090Z,58.3
2017-05-19T06:11:26.933Z,57.5
2017-05-19T06:12:30.399Z,57.2
2017-05-19T06:13:33.244Z,56.6
2017-05-19T06:14:36.087Z,56
2017-05-19T06:15:38.933Z,56.4
2017-05-19T06:16:41.783Z,56.5
2017-05-19T06:17:45.431Z,57.1
2017-05-19T06:18:47.774Z,57.9
2017-05-19T06:19:51.127Z,57.8
2017-05-19T06:20:53.973Z,57.7
2017-05-19T06:21:56.817Z,57.4
2017-05-19T06:22:59.912Z,57.7
2017-05-19T06:24:02.760Z,58.1
2017-05-19T06:25:05.607Z,58
2017-05-19T06:26:08.824Z,57.3
2017-05-19T06:27:11.537Z,56.9
2017-05-19T06:28:14.985Z,57.1
2017-05-19T06:29:17.700Z,57.3
2017-05-19T06:30:20.554Z,57.2
2017-05-19T06:31:23.903Z,57.7
2017-05-19T06:32:26.618Z,57.9
2017-05-19T06:33:29.714Z,57.4
2017-05-19T06:34:32.559Z,56.6
2017-05-19T06:35:35.453Z,56.7
2017-05-19T06:36:38.797Z,57.3
2017-05-19T06:37:41.639Z,57.2
2017-05-19T06:38:44.738Z,57.5
2017-05-19T06:39:47.594Z,57.6
2017-05-19T06:40:50.442Z,56.9
2017-05-19T06:41:53.290Z,56.7
2017-05-19T06:42:56.199Z,56.4
2017-05-19T06:43:59.810Z,54.8
2017-05-19T06:45:02.158Z,54.9
2017-05-19T06:46:05.388Z,54.7
2017-05-19T06:47:08.232Z,54.9
2017-05-19T06:48:11.313Z,54.3
2017-05-19T06:49:14.784Z,54.3
2017-05-19T06:50:18.062Z,55.1
2017-05-19T06:51:20.458Z,55.4
2017-05-19T06:52:23.309Z,54.8
2017-05-19T06:53:26.154Z,54.8
2017-05-19T06:54:29.484Z,54.6
2017-05-19T06:55:32.062Z,54.3
2017-05-19T06:56:35.143Z,54.1
2017-05-19T06:57:38.354Z,54
2017-05-19T06:58:41.069Z,53.4
2017-05-19T06:59:44.588Z,53.7
2017-05-19T07:00:47.443Z,53.5
2017-05-19T07:01:50.287Z,53.3
2017-05-19T07:02:53.040Z,53.1
2017-05-19T07:03:56.446Z,52.9
2017-05-19T07:04:59.412Z,52.9
2017-05-19T07:06:02.125Z,53.3
2017-05-19T07:08:08.131Z,52.5
2017-05-19T07:09:11.347Z,51.5
2017-05-19T07:10:14.360Z,51.6
2017-05-19T07:11:17.448Z,51.3
2017-05-19T07:12:20.161Z,51.1
2017-05-19T07:13:23.238Z,50.8
2017-05-19T07:14:26.003Z,50.8
2017-05-19T07:15:29.467Z,50.5
2017-05-19T07:16:32.746Z,49.8
2017-05-19T07:17:35.325Z,50.4
2017-05-19T07:18:38.174Z,49.9
2017-05-19T07:19:41.527Z,49.6
2017-05-19T07:20:44.633Z,50
2017-05-19T07:21:47.487Z,50.6
2017-05-19T07:22:50.345Z,51.7
2017-05-19T07:23:53.199Z,51.8
2017-05-19T07:24:56.551Z,51.8
2017-05-19T07:25:59.514Z,52.1
2017-05-19T07:27:02.360Z,52.8
2017-05-19T07:28:05.450Z,53
2017-05-19T07:29:08.179Z,52.9
2017-05-19T07:30:11.393Z,53.2
2017-05-19T07:31:14.361Z,52.8
2017-05-19T07:32:17.579Z,52.8
2017-05-19T07:33:20.292Z,52.9
2017-05-19T07:34:23.645Z,53.1
2017-05-19T07:35:26.263Z,52.5
2017-05-19T07:36:29.731Z,52
2017-05-19T07:37:32.442Z,52.1
2017-05-19T07:38:35.293Z,51.7
2017-05-19T07:39:38.649Z,50.7
2017-05-19T07:40:41.496Z,50.5
2017-05-19T07:42:47.510Z,51.6
2017-05-19T07:43:50.129Z,51.2
2017-05-19T07:44:53.345Z,51
2017-05-19T07:45:56.766Z,50.7
2017-05-19T07:46:59.610Z,50.5
2017-05-19T07:48:02.572Z,50.6
2017-05-19T07:49:05.283Z,51
2017-05-19T07:50:08.501Z,50.9
2017-05-19T07:51:11.346Z,50.6
2017-05-19T07:52:14.559Z,50.2
2017-05-19T07:53:18.083Z,49.7
2017-05-19T07:54:20.495Z,49.6
2017-05-19T07:55:23.842Z,49.1
2017-05-19T07:56:26.694Z,49.4
2017-05-19T07:57:29.407Z,48.9
2017-05-19T07:58:32.881Z,48.4
2017-05-19T07:59:35.592Z,48.8
2017-05-19T08:00:38.445Z,47.4
2017-05-19T08:01:41.526Z,48.4
2017-05-19T08:02:44.880Z,48.2
2017-05-19T08:03:47.984Z,47.5
2017-05-19T08:04:50.894Z,47.8
2017-05-19T08:05:53.741Z,47.2
2017-05-19T08:06:56.453Z,46.9
2017-05-19T08:08:00.360Z,45.4
2017-05-19T08:10:06.245Z,45.7
2017-05-19T08:11:09.092Z,45
2017-05-19T08:12:11.800Z,44.4
2017-05-19T08:13:14.788Z,44.5
2017-05-19T08:14:18.006Z,44.6
2017-05-19T08:15:21.104Z,45
2017-05-19T08:16:23.947Z,44.8
2017-05-19T08:17:26.795Z,44.1
2017-05-19T08:18:30.011Z,44.3
2017-05-19T08:19:33.098Z,44.7
2017-05-19T08:20:36.597Z,44.1
2017-05-19T08:21:38.955Z,43.5
2017-05-19T08:22:42.362Z,43.3
2017-05-19T08:23:45.216Z,42.8
2017-05-19T08:24:48.434Z,43.6
2017-05-19T08:25:51.585Z,42.8
2017-05-19T08:26:54.300Z,43.6
2017-05-19T08:27:57.149Z,42.9
2017-05-19T08:29:01.068Z,43.4
2017-05-19T08:30:03.412Z,43.3
2017-05-19T08:31:06.798Z,43.4
2017-05-19T08:32:09.570Z,43.8
2017-05-19T08:33:12.520Z,43.4
2017-05-19T08:34:15.241Z,43.4
2017-05-19T08:35:18.828Z,42.5
2017-05-19T08:36:21.968Z,42.3
2017-05-19T08:37:24.813Z,42.2
2017-05-19T08:38:27.670Z,42
2017-05-19T08:41:37.102Z,42.1
2017-05-19T08:43:42.863Z,42.3
2017-05-19T08:44:46.077Z,42.8
2017-05-19T08:45:48.928Z,42.8
2017-05-19T08:46:52.597Z,43.1
2017-05-19T08:47:55.441Z,43.3
2017-05-19T08:48:58.153Z,43.1
2017-05-19T08:50:01.504Z,42.6
2017-05-19T08:51:04.347Z,42.5
2017-05-19T08:52:07.496Z,42.3
2017-05-19T08:53:10.716Z,42.6
2017-05-19T08:54:13.425Z,43
2017-05-19T08:55:16.504Z,43.4
2017-05-19T08:56:19.853Z,43.6
2017-05-19T08:57:23.005Z,42.7
2017-05-19T08:58:25.759Z,42.5
2017-05-19T08:59:28.838Z,42.2
2017-05-19T09:00:31.687Z,42.7
2017-05-19T09:01:35.034Z,41.6
2017-05-19T09:02:38.129Z,42.2
2017-05-19T09:03:40.973Z,42.6
2017-05-19T09:04:44.328Z,41.8
2017-05-19T09:05:47.174Z,41.2
2017-05-19T09:06:50.391Z,42.2
2017-05-19T09:07:53.354Z,42.8
2017-05-19T09:08:56.071Z,42.1
2017-05-19T09:09:59.426Z,42.3
2017-05-19T09:11:02.276Z,43
2017-05-19T09:12:05.359Z,43.4
2017-05-19T09:13:09.010Z,43.5
2017-05-19T09:14:11.861Z,43.3
2017-05-19T09:15:14.573Z,43.4
2017-05-19T09:16:17.654Z,43
2017-05-19T09:17:21.003Z,42.4
2017-05-19T09:18:24.109Z,43.7
2017-05-19T09:19:26.960Z,44.3
2017-05-19T09:20:30.249Z,44.8
2017-05-19T09:21:32.966Z,44.9
2017-05-19T09:22:35.914Z,44.8
2017-05-19T09:23:39.567Z,44.2
2017-05-19T09:24:42.411Z,44.2
2017-05-19T09:25:45.257Z,44.9
2017-05-19T09:26:48.608Z,44.8
2017-05-19T09:27:51.457Z,44.8
2017-05-19T09:28:54.554Z,44.8
2017-05-19T09:29:57.401Z,44.9
2017-05-19T09:31:01.300Z,45.3
2017-05-19T09:32:03.645Z,45.3
2017-05-19T09:33:06.994Z,45.9
2017-05-19T09:34:10.144Z,45.2
2017-05-19T09:35:12.987Z,45.7
2017-05-19T09:36:15.835Z,46
2017-05-19T09:37:19.044Z,45.9
2017-05-19T09:38:21.888Z,45.7
2017-05-19T09:39:25.541Z,45.6
2017-05-19T09:40:28.253Z,45.1
2017-05-19T09:41:31.469Z,45
2017-05-19T09:43:37.227Z,45.1
2017-05-19T09:44:40.884Z,44.6
2017-05-19T09:45:43.736Z,44.8
2017-05-19T09:46:46.584Z,44.5
2017-05-19T09:47:49.799Z,44.2
2017-05-19T09:48:53.210Z,43.8
2017-05-19T09:49:56.172Z,43.4
2017-05-19T09:50:59.020Z,43.5
2017-05-19T09:52:01.871Z,43.2
2017-05-19T09:53:04.818Z,42.9
2017-05-19T09:54:08.169Z,43.5
2017-05-19T09:55:11.891Z,44
2017-05-19T09:56:14.100Z,44.1
2017-05-19T09:57:17.248Z,43.8
2017-05-19T09:58:21.014Z,43.9
2017-05-19T09:59:23.353Z,43.6
2017-05-19T10:00:27.534Z,43.6
2017-05-19T10:01:29.881Z,43.4
2017-05-19T10:02:32.591Z,42.5
2017-05-19T10:03:35.805Z,43
2017-05-19T10:04:39.155Z,43.5
2017-05-19T10:05:42.253Z,44.1
2017-05-19T10:06:45.102Z,44.9
2017-05-19T10:07:47.947Z,44.7
2017-05-19T10:08:51.300Z,44.8
2017-05-19T10:09:54.147Z,44.4
2017-05-19T10:10:57.800Z,44.4
2017-05-19T10:12:00.647Z,45
2017-05-19T10:13:03.492Z,45.5
2017-05-19T10:14:06.337Z,45.7
2017-05-19T10:15:09.685Z,45.9
2017-05-19T10:16:12.700Z,46.5
2017-05-19T10:17:15.919Z,46.7
2017-05-19T10:18:18.691Z,46.1
2017-05-19T10:19:21.911Z,46.7
2017-05-19T10:20:25.133Z,46.6
2017-05-19T10:21:28.207Z,47
2017-05-19T10:22:30.788Z,47.3
2017-05-19T10:23:34.136Z,47.8
2017-05-19T10:24:36.987Z,47.7
2017-05-19T10:25:40.392Z,47.2
2017-05-19T10:26:44.056Z,48
2017-05-19T10:27:46.398Z,47.7
2017-05-19T10:28:49.247Z,48.5
2017-05-19T10:29:52.594Z,48.3
2017-05-19T10:30:55.439Z,49.1
2017-05-19T10:31:58.543Z,49.5
2017-05-19T10:33:01.801Z,48.4
2017-05-19T10:34:04.648Z,48.4
2017-05-19T10:35:07.500Z,47.7
2017-05-19T10:36:10.580Z,46.9
2017-05-19T10:37:14.091Z,47.2
2017-05-19T10:38:16.806Z,48.2
2017-05-19T10:39:19.653Z,48
2017-05-19T10:40:22.871Z,48.1
2017-05-19T10:41:25.718Z,47.6
2017-05-19T10:42:29.186Z,47.5
2017-05-19T10:43:31.762Z,48.1
2017-05-19T10:44:34.973Z,48.1
2017-05-19T10:45:38.058Z,48.2
2017-05-19T10:48:47.407Z,48.9
2017-05-19T10:49:50.185Z,49.3
2017-05-19T10:50:53.032Z,49.9
2017-05-19T10:51:56.382Z,49.8
2017-05-19T10:52:59.231Z,49.7
2017-05-19T10:54:02.881Z,49.9
2017-05-19T10:55:05.461Z,50.2
2017-05-19T10:56:08.312Z,49.5
2017-05-19T10:57:11.526Z,49.6
2017-05-19T10:58:14.241Z,50.1
2017-05-19T10:59:17.761Z,50.3
2017-05-19T11:00:21.077Z,50.5
2017-05-19T11:01:23.415Z,50.7
2017-05-19T11:02:26.630Z,50
2017-05-19T11:03:29.473Z,49.5
2017-05-19T11:04:32.813Z,49.6
2017-05-19T11:05:36.086Z,50.6
2017-05-19T11:06:38.931Z,50.8
2017-05-19T11:07:41.772Z,50.9
2017-05-19T11:08:44.923Z,50.9
2017-05-19T11:09:47.895Z,50.9
2017-05-19T11:10:50.979Z,51.1
2017-05-19T11:11:53.691Z,51.4
2017-05-19T11:12:57.478Z,51.7
2017-05-19T11:14:00.193Z,51.6
2017-05-19T11:15:03.292Z,52
2017-05-19T11:16:06.003Z,51.7
2017-05-19T11:17:09.083Z,51.5
2017-05-19T11:18:11.930Z,51.2
2017-05-19T11:19:15.007Z,51.5
2017-05-19T11:20:18.210Z,51.4
2017-05-19T11:21:21.061Z,51.4
2017-05-19T11:22:24.408Z,50.8
2017-05-19T11:23:27.256Z,50.6
2017-05-19T11:24:30.101Z,50.8
2017-05-19T11:25:33.756Z,50.9
2017-05-19T11:26:36.471Z,50.6
2017-05-19T11:27:39.555Z,50.9
2017-05-19T11:28:42.272Z,50.8
2017-05-19T11:29:45.627Z,51.6
2017-05-19T11:30:48.589Z,50.9
2017-05-19T11:31:51.301Z,51.2
2017-05-19T11:32:54.652Z,51.1
2017-05-19T11:33:57.500Z,51.3
2017-05-19T11:35:00.851Z,51.3
2017-05-19T11:36:03.951Z,50.9
2017-05-19T11:37:06.800Z,51.5
2017-05-19T11:38:09.648Z,51.7
2017-05-19T11:39:12.866Z,52.5
2017-05-19T11:40:15.731Z,51.4
2017-05-19T11:41:19.253Z,51.4
2017-05-19T11:42:21.969Z,51.1
2017-05-19T11:43:24.683Z,51.8
2017-05-19T11:44:28.034Z,51.3
2017-05-19T11:45:30.751Z,51.2
2017-05-19T11:46:33.949Z,51.5
2017-05-19T11:47:36.792Z,51.6
2017-05-19T11:48:40.007Z,51.5
2017-05-19T11:49:42.853Z,51.1
2017-05-19T11:50:45.937Z,51.1
2017-05-19T11:51:49.538Z,51.1
2017-05-19T11:52:51.889Z,50.6
2017-05-19T11:53:55.304Z,49.8
2017-05-19T11:56:00.928Z,49.5
2017-05-19T11:57:04.532Z,49.6
2017-05-19T11:58:07.378Z,49.4
2017-05-19T11:59:10.092Z,48.6
2017-05-19T12:00:13.445Z,48.3
2017-05-19T12:01:16.159Z,49
2017-05-19T12:02:19.188Z,48.9
2017-05-19T12:04:25.318Z,48.9
2017-05-19T12:05:28.168Z,47.4
2017-05-19T12:06:31.523Z,47.6
2017-05-19T12:07:34.618Z,47.4
2017-05-19T12:08:37.335Z,46.7
2017-05-19T12:09:40.550Z,47.4
2017-05-19T12:10:43.774Z,46.8
2017-05-19T12:11:46.625Z,46.9
2017-05-19T12:12:49.656Z,47
2017-05-19T12:13:52.499Z,46.7
2017-05-19T12:14:55.850Z,46.6
2017-05-19T12:15:58.565Z,46.3
2017-05-19T12:17:01.913Z,45.7
2017-05-19T12:18:05.011Z,45.9
2017-05-19T12:19:07.788Z,46.2
2017-05-19T12:20:10.938Z,46.2
2017-05-19T12:21:13.771Z,46.5
2017-05-19T12:22:16.994Z,47
2017-05-19T12:23:20.034Z,47
2017-05-19T12:24:23.265Z,47.4
2017-05-19T12:25:26.105Z,47.2
2017-05-19T12:26:28.946Z,47.4
2017-05-19T12:27:32.161Z,47.7
2017-05-19T12:28:35.548Z,47.6
2017-05-19T12:29:38.403Z,47.9
2017-05-19T12:30:41.249Z,47.2
2017-05-19T12:31:44.095Z,46.9
2017-05-19T12:32:47.444Z,47
2017-05-19T12:33:50.458Z,46.9
2017-05-19T12:34:53.176Z,47.1
2017-05-19T12:35:56.530Z,47
2017-05-19T12:36:59.374Z,46.7
2017-05-19T12:38:02.726Z,47.1
2017-05-19T12:39:05.740Z,47.1
2017-05-19T12:40:08.449Z,46.8
2017-05-19T12:41:12.370Z,46.5
2017-05-19T12:42:14.714Z,47.1
2017-05-19T12:43:17.574Z,47.1
2017-05-19T12:44:21.177Z,46.7
2017-05-19T12:45:24.023Z,46.5
2017-05-19T12:46:26.868Z,46.7
2017-05-19T12:47:29.713Z,46.3
2017-05-19T12:48:33.064Z,44.8
2017-05-19T12:49:36.215Z,44.2
2017-05-19T12:50:38.788Z,44.4
2017-05-19T12:51:42.138Z,44.2
2017-05-19T12:52:44.982Z,44
2017-05-19T12:53:48.068Z,44.3
2017-05-19T12:54:51.538Z,44.4
2017-05-19T12:55:54.116Z,45.1
2017-05-19T12:56:57.463Z,44.7
2017-05-19T12:58:00.309Z,44.4
2017-05-19T12:59:03.021Z,41.1
2017-05-19T13:00:06.678Z,40.6
2017-05-19T13:01:09.536Z,41.9
2017-05-19T13:02:12.391Z,42.1
2017-05-19T13:03:15.800Z,41.1
2017-05-19T13:04:18.373Z,40.9
2017-05-19T13:05:21.976Z,40.7
2017-05-19T13:06:24.827Z,40.2
2017-05-19T13:07:27.597Z,40.1
2017-05-19T13:08:30.946Z,39.8
2017-05-19T13:09:34.358Z,40.1
2017-05-19T13:10:36.960Z,38.5
2017-05-19T13:11:39.809Z,39.3
2017-05-19T13:12:42.893Z,38.1
2017-05-19T13:13:46.255Z,38.8
2017-05-19T13:14:48.839Z,38.9
2017-05-19T13:15:52.172Z,38.8
2017-05-19T13:16:55.023Z,38.4
2017-05-19T13:17:58.374Z,38.7
2017-05-19T13:19:01.148Z,39.2
2017-05-19T13:20:04.507Z,38.8
2017-05-19T13:21:07.607Z,38.8
2017-05-19T13:23:13.614Z,38.4
2017-05-19T13:24:16.474Z,37.8
2017-05-19T13:25:19.347Z,38.4
2017-05-19T13:26:22.691Z,38.9
2017-05-19T13:27:25.401Z,39
2017-05-19T13:28:28.616Z,37.3
2017-05-19T13:29:32.373Z,37
2017-05-19T13:30:34.511Z,37.3
2017-05-19T13:31:37.975Z,36.8
2017-05-19T13:32:40.685Z,36.4
2017-05-19T13:33:44.095Z,36.8
2017-05-19T13:34:46.878Z,36.9
2017-05-19T13:35:50.233Z,37.4
2017-05-19T13:36:53.377Z,38.4
2017-05-19T13:37:56.220Z,37.4
2017-05-19T13:38:59.078Z,38
2017-05-19T13:40:02.292Z,38.3
2017-05-19T13:41:05.140Z,37.9
2017-05-19T13:42:08.614Z,37.9
2017-05-19T13:43:11.479Z,37.8
2017-05-19T13:44:14.326Z,38.5
2017-05-19T13:45:17.544Z,38.6
2017-05-19T13:46:20.388Z,38.8
2017-05-19T13:47:23.903Z,37.7
2017-05-19T13:48:26.542Z,38.1
2017-05-19T13:49:29.258Z,38.7
2017-05-19T13:50:32.471Z,37.2
2017-05-19T13:51:35.821Z,38
2017-05-19T13:52:38.780Z,37
2017-05-19T13:53:41.999Z,37.3
2017-05-19T13:54:44.847Z,37.3
2017-05-19T13:55:47.627Z,37.6
2017-05-19T13:56:50.847Z,37.9
2017-05-19T13:57:54.456Z,37.9
2017-05-19T13:58:56.796Z,37.5
2017-05-19T14:00:00.019Z,38
2017-05-19T14:02:06.287Z,37.7
2017-05-19T14:03:09.307Z,37.9
2017-05-19T14:04:12.159Z,37.8
2017-05-19T14:05:15.511Z,37.2
2017-05-19T14:06:18.223Z,37.7
2017-05-19T14:07:21.573Z,37.8
2017-05-19T14:08:24.539Z,37.5
2017-05-19T14:09:27.761Z,37.9
2017-05-19T14:10:30.620Z,38.3
2017-05-19T14:11:34.029Z,37.9
2017-05-19T14:12:36.880Z,37.6
2017-05-19T14:13:39.984Z,37.2
2017-05-19T14:14:42.831Z,37.4
2017-05-19T14:15:46.049Z,37.7
2017-05-19T14:17:52.182Z,37.8
2017-05-19T14:18:55.278Z,37.9
2017-05-19T14:19:58.694Z,38.3
2017-05-19T14:21:00.911Z,37.6
2017-05-19T14:22:04.131Z,37.5
2017-05-19T14:23:07.481Z,37.5
2017-05-19T14:24:10.446Z,37.1
2017-05-19T14:25:13.297Z,37.6
2017-05-19T14:26:16.516Z,37.3
2017-05-19T14:27:19.369Z,37.8
2017-05-19T14:29:25.892Z,38.1
2017-05-19T14:30:28.471Z,37.8
2017-05-19T14:31:31.823Z,37.7
2017-05-19T14:32:34.670Z,37.8